Time;durP1;ratioP1;P1;durP2;ratioP2;P2;SDS_P1;SDS_P2;PMS_P1;PMS_P2;Temp;Humidity;BMP_temperature;BMP_pressure;BME280_temperature;BME280_humidity;BME280_pressure;Samples;Min_cycle;Max_cycle;Signal;HPM_P1;HPM_P2
2021/04/26 00:38:33;;;;;;;12.07;5.70;;;1.10;99.90;;;;;;6248084;23;20368;-93
2021/04/26 00:44:54;;;;;;;9.65;5.60;;;1.00;99.90;;;;;;6259705;22;20373;-95
2021/04/26 00:47:21;;;;;;;10.63;6.00;;;1.00;99.90;;;;;;6220042;23;20406;-95
2021/04/26 00:49:49;;;;;;;10.93;6.07;;;1.00;99.90;;;;;;6220014;23;20389;-94
2021/04/26 00:52:16;;;;;;;11.43;5.78;;;0.90;99.90;;;;;;6220933;23;20390;-95
2021/04/26 00:54:50;;;;;;;14.40;6.22;;;0.90;99.90;;;;;;6219048;23;20712;-95
2021/04/26 01:05:33;;;;;;;12.43;6.38;;;0.70;99.90;;;;;;6133670;23;20412;-94
2021/04/26 01:09:16;;;;;;;;;;;;;;;;;;;;;
2021/04/26 01:47:10;;;;;;;10.47;5.37;;;0.70;99.90;;;;;;6038933;23;20384;-95
2021/04/26 01:54:44;;;;;;;;;;;;;;;;;;;;;
2021/04/26 01:57:24;;;;;;;12.13;5.00;;;0.70;99.90;;;;;;6037464;23;20394;-94
2021/04/26 02:00:13;;;;;;;11.40;5.35;;;0.70;99.90;;;;;;6036111;23;20398;-94
2021/04/26 02:02:47;;;;;;;12.05;5.13;;;0.70;99.90;;;;;;6038366;23;20423;-94
2021/04/26 02:05:15;;;;;;;8.68;5.18;;;0.70;99.90;;;;;;6038956;23;20584;-94
2021/04/26 02:07:49;;;;;;;10.20;5.80;;;0.70;99.90;;;;;;6038302;23;20900;-95
2021/04/26 02:10:32;;;;;;;11.23;5.50;;;0.60;99.90;;;;;;6049523;23;20398;-94
2021/04/26 02:13:00;;;;;;;12.48;5.55;;;0.70;99.90;;;;;;6053595;23;20398;-94
2021/04/26 02:15:30;;;;;;;13.18;5.72;;;0.70;99.90;;;;;;6057429;23;20445;-93
2021/04/26 02:21:50;;;;;;;13.38;5.47;;;0.70;99.90;;;;;;6062673;23;20449;-94
2021/04/26 02:24:17;;;;;;;12.07;5.68;;;0.70;99.90;;;;;;6121797;23;20393;-94
2021/04/26 02:26:43;;;;;;;10.85;5.25;;;0.70;99.90;;;;;;6122986;23;20425;-94
2021/04/26 02:29:10;;;;;;;11.63;5.28;;;0.70;99.90;;;;;;6169548;22;20392;-94
2021/04/26 02:35:34;;;;;;;11.18;5.00;;;0.80;99.90;;;;;;6299626;22;20414;-94
2021/04/26 02:38:05;;;;;;;9.93;5.60;;;0.80;99.90;;;;;;6300705;22;20412;-93
2021/04/26 02:40:49;;;;;;;12.43;5.40;;;0.90;99.90;;;;;;6275739;22;20742;-95
2021/04/26 02:43:16;;;;;;;13.23;5.22;;;0.80;99.90;;;;;;6276501;22;20384;-95
2021/04/26 02:45:52;;;;;;;12.82;5.78;;;0.70;99.90;;;;;;6275225;22;20387;-93
2021/04/26 02:49:03;;;;;;;11.65;4.93;;;0.80;99.90;;;;;;6275974;22;20390;-96
2021/04/26 02:52:28;;;;;;;;;;;;;;;;;;;;;
2021/04/26 02:55:33;;;;;;;11.07;5.77;;;0.80;99.90;;;;;;6153526;23;20434;-94
2021/04/26 02:58:14;;;;;;;9.80;4.82;;;0.90;99.90;;;;;;6130514;23;20397;-95
2021/04/26 03:08:51;;;;;;;;;;;;;;;;;;;;;
2021/04/26 03:11:43;;;;;;;9.38;5.10;;;0.80;99.90;;;;;;6153595;23;21009;-93
2021/04/26 03:14:43;;;;;;;7.78;4.70;;;0.80;99.90;;;;;;6128811;23;20477;-94
2021/04/26 03:17:46;;;;;;;12.40;4.95;;;0.80;99.90;;;;;;6130772;23;20395;-95
2021/04/26 03:32:01;;;;;;;10.82;5.28;;;0.70;99.90;;;;;;6245013;23;20730;-94
2021/04/26 03:34:59;;;;;;;10.97;5.03;;;0.60;99.90;;;;;;6219155;23;20417;-96
2021/04/26 03:37:46;;;;;;;9.50;5.10;;;0.60;99.90;;;;;;6219728;23;20810;-94
2021/04/26 03:40:31;;;;;;;8.80;5.07;;;0.60;99.90;;;;;;6223479;23;20386;-93
2021/04/26 03:43:56;;;;;;;;;;;;;;;;;;;;;
2021/04/26 03:54:45;;;;;;;12.43;5.55;;;0.40;99.90;;;;;;6067633;23;20858;-94
2021/04/26 03:57:35;;;;;;;9.60;5.20;;;0.30;99.90;;;;;;6059808;23;20471;-94
2021/04/26 04:00:24;;;;;;;9.43;5.47;;;0.30;99.90;;;;;;6137273;23;21161;-95
2021/04/26 04:03:09;;;;;;;8.30;5.47;;;0.30;99.90;;;;;;6110883;23;20395;-96
2021/04/26 04:06:10;;;;;;;12.37;5.30;;;0.40;99.90;;;;;;6128807;23;20385;-94
2021/04/26 04:09:03;;;;;;;9.68;5.35;;;0.40;99.90;;;;;;6217136;23;20460;-93
2021/04/26 04:12:03;;;;;;;10.25;5.57;;;0.40;99.90;;;;;;6221221;23;20390;-95
2021/04/26 04:14:33;;;;;;;12.17;5.87;;;0.40;99.90;;;;;;6219271;23;20794;-95
2021/04/26 04:20:30;;;;;;;12.35;5.57;;;0.30;99.90;;;;;;6298812;22;20380;-94
2021/04/26 04:23:06;;;;;;;13.75;5.78;;;0.40;99.90;;;;;;6325993;22;20376;-94
2021/04/26 04:25:42;;;;;;;11.65;5.68;;;0.50;99.90;;;;;;6319040;22;20389;-95
2021/04/26 04:28:10;;;;;;;8.88;5.50;;;0.50;99.90;;;;;;6317875;22;20372;-92
2021/04/26 04:30:37;;;;;;;11.20;5.40;;;0.50;99.90;;;;;;6308366;22;20397;-92
2021/04/26 04:33:09;;;;;;;11.30;5.50;;;0.60;99.90;;;;;;6301136;22;20418;-93
2021/04/26 04:35:44;;;;;;;8.80;5.30;;;0.60;99.90;;;;;;6283995;22;20394;-96
2021/04/26 04:38:17;;;;;;;12.40;5.63;;;0.50;99.90;;;;;;6282905;22;20383;-94
2021/04/26 04:40:53;;;;;;;12.30;5.50;;;0.60;99.90;;;;;;6284560;22;20387;-94
2021/04/26 04:43:41;;;;;;;10.00;5.47;;;0.60;99.90;;;;;;6258125;22;20382;-95
2021/04/26 04:46:25;;;;;;;10.48;5.60;;;0.50;99.90;;;;;;6283401;22;20743;-94
2021/04/26 04:49:02;;;;;;;9.07;5.25;;;0.50;99.90;;;;;;6284370;22;20483;-93
2021/04/26 04:51:53;;;;;;;11.77;5.68;;;0.60;99.90;;;;;;6312100;22;20385;-94
2021/04/26 04:54:35;;;;;;;9.43;5.50;;;0.50;99.90;;;;;;6283963;22;20425;-94
2021/04/26 04:57:19;;;;;;;10.88;5.50;;;0.50;99.90;;;;;;6282593;22;20383;-94
2021/04/26 04:59:55;;;;;;;11.48;6.10;;;0.40;99.90;;;;;;6286637;22;20440;-95
2021/04/26 05:02:26;;;;;;;11.70;6.07;;;0.40;99.90;;;;;;6283455;22;20386;-95
2021/04/26 05:04:57;;;;;;;11.73;6.10;;;0.40;99.90;;;;;;6284011;22;20451;-94
2021/04/26 05:07:59;;;;;;;14.02;6.60;;;0.40;99.90;;;;;;6283370;22;20382;-94
2021/04/26 05:10:31;;;;;;;13.40;5.90;;;0.50;99.90;;;;;;6283280;22;20410;-93
2021/04/26 05:13:00;;;;;;;14.35;5.93;;;0.70;99.90;;;;;;6282939;22;20398;-94
2021/04/26 05:15:30;;;;;;;9.90;5.83;;;0.90;99.90;;;;;;6282906;22;20394;-95
2021/04/26 05:18:57;;;;;;;;;;;;;;;;;;;;;
2021/04/26 05:25:35;;;;;;;10.73;5.82;;;1.60;99.90;;;;;;6185622;23;20399;-94
2021/04/26 05:28:03;;;;;;;9.80;5.57;;;1.70;99.90;;;;;;6160174;23;20413;-96
2021/04/26 05:30:30;;;;;;;11.43;5.50;;;1.70;99.90;;;;;;6188637;23;20381;-94
2021/04/26 05:32:58;;;;;;;11.30;6.20;;;1.70;99.90;;;;;;6144339;23;20393;-94
2021/04/26 05:35:26;;;;;;;11.60;5.68;;;1.80;99.90;;;;;;6176975;23;20405;-93
2021/04/26 05:37:55;;;;;;;13.20;6.22;;;1.80;99.90;;;;;;6178298;23;20477;-95
2021/04/26 05:40:21;;;;;;;11.60;5.82;;;1.90;99.90;;;;;;6178618;23;20392;-94
2021/04/26 05:42:48;;;;;;;12.05;6.20;;;2.20;99.90;;;;;;6178296;23;20392;-95
2021/04/26 05:45:18;;;;;;;11.82;6.07;;;2.30;99.90;;;;;;6180712;23;20416;-92
2021/04/26 05:51:29;;;;;;;10.90;5.82;;;2.70;99.90;;;;;;6210405;23;20412;-95
2021/04/26 05:54:25;;;;;;;10.73;5.10;;;3.10;99.90;;;;;;6262147;23;20382;-94
2021/04/26 05:57:04;;;;;;;10.35;5.32;;;3.20;99.90;;;;;;6270602;22;20393;-95
2021/04/26 05:59:48;;;;;;;12.87;5.77;;;3.30;99.90;;;;;;6297768;22;20389;-93
2021/04/26 06:02:24;;;;;;;10.50;5.00;;;3.50;99.90;;;;;;6197581;22;20424;-94
2021/04/26 06:54:54;;;;;;;8.48;4.07;;;10.10;77.10;;;;;;6283026;22;20494;-93
2021/04/26 06:57:22;;;;;;;9.10;4.20;;;9.60;77.30;;;;;;6260121;22;20451;-95
2021/04/26 06:59:49;;;;;;;8.32;4.10;;;9.60;77.10;;;;;;6251891;22;20649;-94
2021/04/26 07:02:42;;;;;;;7.97;4.10;;;9.70;75.00;;;;;;6262276;22;20375;-92
2021/04/26 07:31:10;;;;;;;10.00;4.00;;;9.90;74.30;;;;;;6269070;22;20365;-93
2021/04/26 07:33:51;;;;;;;10.05;4.25;;;10.80;70.90;;;;;;6218343;22;20397;-93
2021/04/26 07:57:39;;;;;;;8.73;3.92;;;9.40;71.50;;;;;;6355598;22;20391;-86
2021/04/26 08:00:09;;;;;;;7.90;3.97;;;8.80;74.10;;;;;;6312114;22;20371;-88
2021/04/26 08:02:36;;;;;;;8.05;4.30;;;8.90;77.70;;;;;;6312387;22;20389;-88
2021/04/26 08:05:29;;;;;;;10.20;4.30;;;8.80;72.60;;;;;;6312379;22;20377;-95
2021/04/26 08:07:55;;;;;;;8.45;4.13;;;8.50;76.60;;;;;;6317242;22;20690;-88
2021/04/26 08:10:22;;;;;;;8.35;4.10;;;8.40;74.70;;;;;;6313795;22;20369;-89
2021/04/26 08:12:49;;;;;;;17.48;4.53;;;8.80;79.00;;;;;;6313046;22;20369;-87
2021/04/26 08:15:16;;;;;;;6.83;4.03;;;9.50;76.90;;;;;;6313022;22;20392;-88
2021/04/26 08:17:43;;;;;;;8.13;4.00;;;10.30;72.20;;;;;;6319789;22;20385;-91
2021/04/26 08:20:11;;;;;;;8.93;4.43;;;11.00;72.80;;;;;;6338943;22;20377;-88
2021/04/26 08:22:39;;;;;;;8.63;4.07;;;11.60;67.70;;;;;;6327774;22;20385;-88
2021/04/26 08:25:11;;;;;;;10.38;4.30;;;11.60;66.90;;;;;;6316005;22;20705;-90
2021/04/26 08:27:38;;;;;;;9.88;4.45;;;11.90;67.10;;;;;;6315260;22;20371;-88
2021/04/26 08:30:07;;;;;;;6.30;4.13;;;12.20;64.50;;;;;;6315095;22;20700;-89
2021/04/26 08:32:34;;;;;;;9.23;3.83;;;12.40;62.20;;;;;;6315106;22;20408;-90
2021/04/26 08:35:02;;;;;;;13.50;4.10;;;12.50;64.20;;;;;;6314197;22;20400;-89
2021/04/26 08:41:16;;;;;;;7.55;4.10;;;12.40;61.90;;;;;;6342945;22;20348;-90
2021/04/26 08:43:45;;;;;;;9.98;4.20;;;13.00;61.90;;;;;;6314695;22;20863;-90
2021/04/26 08:46:13;;;;;;;6.85;4.07;;;13.30;58.40;;;;;;6320247;22;20412;-90
2021/04/26 08:48:42;;;;;;;8.02;4.20;;;13.70;54.50;;;;;;6322584;22;20384;-90
2021/04/26 08:51:09;;;;;;;9.20;3.78;;;13.30;54.40;;;;;;6322304;22;20412;-90
2021/04/26 08:53:36;;;;;;;8.88;3.80;;;12.90;54.10;;;;;;6319875;22;20361;-90
2021/04/26 08:56:06;;;;;;;8.52;4.22;;;12.60;50.40;;;;;;6319233;22;20472;-89
2021/04/26 08:58:33;;;;;;;9.90;4.03;;;12.30;55.10;;;;;;6342795;22;20377;-90
2021/04/26 09:01:00;;;;;;;7.35;4.03;;;12.30;57.80;;;;;;6314170;22;20474;-90
2021/04/26 09:03:32;;;;;;;8.18;4.00;;;12.80;57.10;;;;;;6315100;22;20385;-90
2021/04/26 09:05:59;;;;;;;9.50;4.10;;;13.80;55.90;;;;;;6315413;22;20484;-89
2021/04/26 09:08:27;;;;;;;9.83;4.77;;;14.10;55.80;;;;;;6316200;22;20365;-90
2021/04/26 09:11:03;;;;;;;10.30;4.25;;;14.20;49.00;;;;;;6314918;22;20392;-89
2021/04/26 09:13:37;;;;;;;7.00;3.60;;;14.40;52.00;;;;;;6314849;22;20387;-90
2021/04/26 09:16:18;;;;;;;6.90;3.90;;;14.70;48.90;;;;;;6314634;22;20388;-89
2021/04/26 09:19:10;;;;;;;7.38;3.95;;;14.80;49.20;;;;;;6314219;22;20887;-90
2021/04/26 09:21:44;;;;;;;8.02;4.13;;;14.90;46.90;;;;;;6314730;22;20361;-89
2021/04/26 09:24:28;;;;;;;6.25;3.72;;;14.30;49.10;;;;;;6315988;22;20443;-89
2021/04/26 09:37:43;;;;;;;9.60;4.15;;;13.00;54.40;;;;;;6310114;22;20643;-90
2021/04/26 09:40:13;;;;;;;10.57;4.45;;;12.70;52.80;;;;;;6315405;22;20580;-90
2021/04/26 09:42:59;;;;;;;8.27;4.43;;;12.50;54.90;;;;;;6318722;22;20384;-90
2021/04/26 09:45:40;;;;;;;7.70;3.97;;;12.40;55.80;;;;;;6315538;22;20377;-90
2021/04/26 09:48:26;;;;;;;6.50;4.07;;;12.30;53.90;;;;;;6317996;22;20406;-90
2021/04/26 09:51:02;;;;;;;9.80;4.15;;;12.00;57.00;;;;;;6316781;22;20467;-92
2021/04/26 09:57:16;;;;;;;9.68;4.00;;;11.50;56.10;;;;;;6340293;22;20388;-92
2021/04/26 09:59:46;;;;;;;8.25;3.90;;;11.50;56.20;;;;;;6311695;22;20381;-92
2021/04/26 10:02:13;;;;;;;7.03;3.75;;;12.10;55.00;;;;;;6311934;22;20464;-91
2021/04/26 10:04:43;;;;;;;10.00;4.30;;;12.40;54.50;;;;;;6312861;22;20399;-91
2021/04/26 10:07:12;;;;;;;9.80;4.87;;;12.10;56.60;;;;;;6312448;22;20857;-90
2021/04/26 10:09:45;;;;;;;9.03;3.80;;;12.00;58.60;;;;;;6312066;22;20464;-92
2021/04/26 10:12:14;;;;;;;8.70;3.95;;;12.00;58.60;;;;;;6313518;22;20433;-92
2021/04/26 10:14:42;;;;;;;7.47;3.90;;;12.40;58.90;;;;;;6338652;22;20408;-92
2021/04/26 10:17:30;;;;;;;7.50;4.03;;;12.40;56.70;;;;;;6337311;22;20384;-92
2021/04/26 10:20:06;;;;;;;11.07;4.03;;;12.40;56.90;;;;;;6316503;22;20365;-95
2021/04/26 10:22:55;;;;;;;6.27;3.80;;;12.00;54.80;;;;;;6316873;22;20381;-95
2021/04/26 10:25:42;;;;;;;8.07;3.28;;;11.60;60.70;;;;;;6326360;22;20381;-94
2021/04/26 11:05:45;;;;;;;6.40;3.60;;;12.50;56.20;;;;;;6205934;23;20433;-96
2021/04/26 11:36:23;;;;;;;7.55;3.45;;;14.20;55.40;;;;;;6142758;23;20424;-96
2021/04/26 13:09:13;;;;;;;;;;;;;;;;;;;;;
